sensor_id;sensor_type;location;lat;lon;timestamp;P1;durP1;ratioP1;P2;durP2;ratioP2
6679;SDS011;3376;42.664;23.346;2023-04-29T00:01:31;7.60;;;5.83;;
6679;SDS011;3376;42.664;23.346;2023-04-29T00:03:58;10.50;;;5.93;;
6679;SDS011;3376;42.664;23.346;2023-04-29T00:06:25;10.30;;;4.77;;
6679;SDS011;3376;42.664;23.346;2023-04-29T00:08:52;4.57;;;4.27;;
6679;SDS011;3376;42.664;23.346;2023-04-29T00:11:19;6.33;;;5.73;;
6679;SDS011;3376;42.664;23.346;2023-04-29T00:13:45;6.43;;;5.90;;
6679;SDS011;3376;42.664;23.346;2023-04-29T00:16:12;6.03;;;5.40;;
6679;SDS011;3376;42.664;23.346;2023-04-29T00:18:40;6.20;;;5.73;;
6679;SDS011;3376;42.664;23.346;2023-04-29T00:21:07;7.40;;;6.13;;
6679;SDS011;3376;42.664;23.346;2023-04-29T00:23:33;7.40;;;5.83;;
6679;SDS011;3376;42.664;23.346;2023-04-29T00:26:00;8.67;;;7.87;;
6679;SDS011;3376;42.664;23.346;2023-04-29T00:28:27;13.60;;;8.83;;
6679;SDS011;3376;42.664;23.346;2023-04-29T00:30:54;13.17;;;8.87;;
6679;SDS011;3376;42.664;23.346;2023-04-29T00:33:21;12.40;;;8.13;;
6679;SDS011;3376;42.664;23.346;2023-04-29T00:35:49;6.43;;;5.83;;
6679;SDS011;3376;42.664;23.346;2023-04-29T00:38:16;9.07;;;7.13;;
6679;SDS011;3376;42.664;23.346;2023-04-29T00:40:43;10.27;;;7.50;;
6679;SDS011;3376;42.664;23.346;2023-04-29T00:43:10;10.47;;;7.20;;
6679;SDS011;3376;42.664;23.346;2023-04-29T00:45:36;5.87;;;5.30;;
6679;SDS011;3376;42.664;23.346;2023-04-29T00:48:03;12.07;;;5.97;;
6679;SDS011;3376;42.664;23.346;2023-04-29T00:50:30;8.30;;;7.40;;
6679;SDS011;3376;42.664;23.346;2023-04-29T00:52:58;7.37;;;6.77;;
6679;SDS011;3376;42.664;23.346;2023-04-29T00:55:26;8.13;;;6.93;;
6679;SDS011;3376;42.664;23.346;2023-04-29T00:57:54;10.93;;;7.67;;
6679;SDS011;3376;42.664;23.346;2023-04-29T01:00:21;10.83;;;7.30;;
6679;SDS011;3376;42.664;23.346;2023-04-29T01:02:48;9.90;;;7.37;;
6679;SDS011;3376;42.664;23.346;2023-04-29T01:05:16;7.80;;;7.10;;
6679;SDS011;3376;42.664;23.346;2023-04-29T01:07:44;9.47;;;7.20;;
6679;SDS011;3376;42.664;23.346;2023-04-29T01:10:24;8.43;;;7.40;;
6679;SDS011;3376;42.664;23.346;2023-04-29T01:12:56;12.97;;;7.97;;
6679;SDS011;3376;42.664;23.346;2023-04-29T01:15:29;8.87;;;7.50;;
6679;SDS011;3376;42.664;23.346;2023-04-29T01:18:03;8.00;;;7.37;;
6679;SDS011;3376;42.664;23.346;2023-04-29T01:20:34;8.50;;;7.63;;
6679;SDS011;3376;42.664;23.346;2023-04-29T01:23:01;8.37;;;7.77;;
6679;SDS011;3376;42.664;23.346;2023-04-29T01:25:30;8.50;;;7.43;;
6679;SDS011;3376;42.664;23.346;2023-04-29T01:28:01;8.50;;;7.70;;
6679;SDS011;3376;42.664;23.346;2023-04-29T01:30:35;9.17;;;8.37;;
6679;SDS011;3376;42.664;23.346;2023-04-29T01:33:13;11.83;;;8.23;;
6679;SDS011;3376;42.664;23.346;2023-04-29T01:35:44;9.20;;;8.57;;
6679;SDS011;3376;42.664;23.346;2023-04-29T01:38:25;9.40;;;8.40;;
6679;SDS011;3376;42.664;23.346;2023-04-29T01:41:02;9.00;;;7.80;;
6679;SDS011;3376;42.664;23.346;2023-04-29T01:43:36;8.60;;;7.90;;
6679;SDS011;3376;42.664;23.346;2023-04-29T01:46:04;9.07;;;8.30;;
6679;SDS011;3376;42.664;23.346;2023-04-29T01:48:31;9.00;;;8.00;;
6679;SDS011;3376;42.664;23.346;2023-04-29T01:50:58;12.80;;;7.73;;
6679;SDS011;3376;42.664;23.346;2023-04-29T01:53:25;7.60;;;7.10;;
6679;SDS011;3376;42.664;23.346;2023-04-29T01:55:52;10.90;;;7.27;;
6679;SDS011;3376;42.664;23.346;2023-04-29T01:58:20;11.43;;;8.53;;
6679;SDS011;3376;42.664;23.346;2023-04-29T02:00:47;11.93;;;8.30;;
6679;SDS011;3376;42.664;23.346;2023-04-29T02:03:13;8.30;;;7.60;;
6679;SDS011;3376;42.664;23.346;2023-04-29T02:05:41;9.37;;;8.33;;
6679;SDS011;3376;42.664;23.346;2023-04-29T02:08:08;8.40;;;7.80;;
6679;SDS011;3376;42.664;23.346;2023-04-29T02:10:35;8.00;;;7.50;;
6679;SDS011;3376;42.664;23.346;2023-04-29T02:13:01;10.17;;;7.67;;
6679;SDS011;3376;42.664;23.346;2023-04-29T02:15:29;8.03;;;7.43;;
6679;SDS011;3376;42.664;23.346;2023-04-29T02:17:56;7.87;;;7.23;;
6679;SDS011;3376;42.664;23.346;2023-04-29T02:20:23;9.53;;;7.87;;
6679;SDS011;3376;42.664;23.346;2023-04-29T02:22:50;8.37;;;6.70;;
6679;SDS011;3376;42.664;23.346;2023-04-29T02:25:16;7.87;;;7.37;;
6679;SDS011;3376;42.664;23.346;2023-04-29T02:27:43;7.40;;;6.80;;
6679;SDS011;3376;42.664;23.346;2023-04-29T02:30:10;10.07;;;7.63;;
6679;SDS011;3376;42.664;23.346;2023-04-29T02:32:38;7.60;;;6.53;;
6679;SDS011;3376;42.664;23.346;2023-04-29T02:35:05;10.00;;;6.47;;
6679;SDS011;3376;42.664;23.346;2023-04-29T02:37:32;7.63;;;6.50;;
6679;SDS011;3376;42.664;23.346;2023-04-29T02:40:00;11.07;;;7.67;;
6679;SDS011;3376;42.664;23.346;2023-04-29T02:42:27;7.70;;;7.00;;
6679;SDS011;3376;42.664;23.346;2023-04-29T02:44:54;8.77;;;7.90;;
6679;SDS011;3376;42.664;23.346;2023-04-29T02:47:21;8.60;;;7.70;;
6679;SDS011;3376;42.664;23.346;2023-04-29T02:49:49;7.57;;;6.97;;
6679;SDS011;3376;42.664;23.346;2023-04-29T02:52:16;7.47;;;6.77;;
6679;SDS011;3376;42.664;23.346;2023-04-29T02:54:43;10.90;;;7.53;;
6679;SDS011;3376;42.664;23.346;2023-04-29T02:57:10;7.93;;;7.33;;
6679;SDS011;3376;42.664;23.346;2023-04-29T02:59:36;9.63;;;7.83;;
6679;SDS011;3376;42.664;23.346;2023-04-29T03:02:03;8.13;;;7.60;;
6679;SDS011;3376;42.664;23.346;2023-04-29T03:04:30;7.60;;;6.90;;
6679;SDS011;3376;42.664;23.346;2023-04-29T03:06:58;13.93;;;8.03;;
6679;SDS011;3376;42.664;23.346;2023-04-29T03:09:25;9.10;;;8.20;;
6679;SDS011;3376;42.664;23.346;2023-04-29T03:11:52;9.37;;;7.93;;
6679;SDS011;3376;42.664;23.346;2023-04-29T03:14:19;7.73;;;7.03;;
6679;SDS011;3376;42.664;23.346;2023-04-29T03:16:45;7.57;;;6.93;;
6679;SDS011;3376;42.664;23.346;2023-04-29T03:19:12;8.37;;;7.60;;
6679;SDS011;3376;42.664;23.346;2023-04-29T03:21:39;7.93;;;7.43;;
6679;SDS011;3376;42.664;23.346;2023-04-29T03:24:07;7.30;;;6.70;;
6679;SDS011;3376;42.664;23.346;2023-04-29T03:26:34;7.53;;;6.87;;
6679;SDS011;3376;42.664;23.346;2023-04-29T03:29:00;8.03;;;7.40;;
6679;SDS011;3376;42.664;23.346;2023-04-29T03:31:27;8.20;;;7.60;;
6679;SDS011;3376;42.664;23.346;2023-04-29T03:33:54;7.40;;;6.90;;
6679;SDS011;3376;42.664;23.346;2023-04-29T03:36:21;11.83;;;8.00;;
6679;SDS011;3376;42.664;23.346;2023-04-29T03:38:48;9.80;;;7.70;;
6679;SDS011;3376;42.664;23.346;2023-04-29T03:41:16;7.53;;;6.93;;
6679;SDS011;3376;42.664;23.346;2023-04-29T03:43:43;9.47;;;6.97;;
6679;SDS011;3376;42.664;23.346;2023-04-29T03:46:10;8.87;;;8.00;;
6679;SDS011;3376;42.664;23.346;2023-04-29T03:48:36;8.03;;;7.50;;
6679;SDS011;3376;42.664;23.346;2023-04-29T03:51:03;10.13;;;7.90;;
6679;SDS011;3376;42.664;23.346;2023-04-29T03:53:30;8.43;;;7.63;;
6679;SDS011;3376;42.664;23.346;2023-04-29T03:55:57;7.70;;;7.00;;
6679;SDS011;3376;42.664;23.346;2023-04-29T03:58:25;8.53;;;7.57;;
6679;SDS011;3376;42.664;23.346;2023-04-29T04:00:52;8.70;;;7.80;;
6679;SDS011;3376;42.664;23.346;2023-04-29T04:03:20;7.43;;;7.03;;
6679;SDS011;3376;42.664;23.346;2023-04-29T04:05:48;8.17;;;7.40;;
6679;SDS011;3376;42.664;23.346;2023-04-29T04:08:15;7.77;;;7.17;;
6679;SDS011;3376;42.664;23.346;2023-04-29T04:10:42;10.97;;;7.77;;
6679;SDS011;3376;42.664;23.346;2023-04-29T04:13:08;8.10;;;7.33;;
6679;SDS011;3376;42.664;23.346;2023-04-29T04:15:36;8.50;;;8.00;;
6679;SDS011;3376;42.664;23.346;2023-04-29T04:18:03;9.73;;;8.10;;
6679;SDS011;3376;42.664;23.346;2023-04-29T04:20:30;9.63;;;8.03;;
6679;SDS011;3376;42.664;23.346;2023-04-29T04:22:57;8.20;;;7.57;;
6679;SDS011;3376;42.664;23.346;2023-04-29T04:25:23;7.87;;;7.17;;
6679;SDS011;3376;42.664;23.346;2023-04-29T04:27:50;9.67;;;7.80;;
6679;SDS011;3376;42.664;23.346;2023-04-29T04:30:18;11.43;;;7.60;;
6679;SDS011;3376;42.664;23.346;2023-04-29T04:32:46;8.90;;;8.00;;
6679;SDS011;3376;42.664;23.346;2023-04-29T04:35:13;10.00;;;7.50;;
6679;SDS011;3376;42.664;23.346;2023-04-29T04:37:40;24.63;;;8.97;;
6679;SDS011;3376;42.664;23.346;2023-04-29T04:40:07;10.57;;;8.63;;
6679;SDS011;3376;42.664;23.346;2023-04-29T04:42:36;10.17;;;7.33;;
6679;SDS011;3376;42.664;23.346;2023-04-29T04:45:03;8.97;;;8.20;;
6679;SDS011;3376;42.664;23.346;2023-04-29T04:47:30;8.93;;;7.97;;
6679;SDS011;3376;42.664;23.346;2023-04-29T04:49:58;8.30;;;7.37;;
6679;SDS011;3376;42.664;23.346;2023-04-29T04:52:25;12.93;;;7.10;;
6679;SDS011;3376;42.664;23.346;2023-04-29T04:54:52;13.53;;;7.43;;
6679;SDS011;3376;42.664;23.346;2023-04-29T04:57:19;8.33;;;7.57;;
6679;SDS011;3376;42.664;23.346;2023-04-29T04:59:46;8.27;;;7.47;;
6679;SDS011;3376;42.664;23.346;2023-04-29T05:02:12;8.17;;;7.53;;
6679;SDS011;3376;42.664;23.346;2023-04-29T05:04:39;10.23;;;7.00;;
6679;SDS011;3376;42.664;23.346;2023-04-29T05:07:07;8.03;;;7.43;;
6679;SDS011;3376;42.664;23.346;2023-04-29T05:09:34;7.43;;;6.80;;
6679;SDS011;3376;42.664;23.346;2023-04-29T05:12:01;8.77;;;6.80;;
6679;SDS011;3376;42.664;23.346;2023-04-29T05:14:28;7.33;;;6.93;;
6679;SDS011;3376;42.664;23.346;2023-04-29T05:16:57;6.73;;;6.33;;
6679;SDS011;3376;42.664;23.346;2023-04-29T05:19:24;6.80;;;6.23;;
6679;SDS011;3376;42.664;23.346;2023-04-29T05:21:51;7.93;;;6.90;;
6679;SDS011;3376;42.664;23.346;2023-04-29T05:24:19;7.33;;;6.77;;
6679;SDS011;3376;42.664;23.346;2023-04-29T05:26:45;9.00;;;5.97;;
6679;SDS011;3376;42.664;23.346;2023-04-29T05:29:16;8.27;;;6.00;;
6679;SDS011;3376;42.664;23.346;2023-04-29T05:31:44;6.27;;;5.73;;
6679;SDS011;3376;42.664;23.346;2023-04-29T05:34:11;6.70;;;6.10;;
6679;SDS011;3376;42.664;23.346;2023-04-29T05:36:38;6.03;;;5.53;;
6679;SDS011;3376;42.664;23.346;2023-04-29T05:39:04;6.30;;;5.80;;
6679;SDS011;3376;42.664;23.346;2023-04-29T05:41:33;7.40;;;6.07;;
6679;SDS011;3376;42.664;23.346;2023-04-29T05:43:59;5.13;;;4.83;;
6679;SDS011;3376;42.664;23.346;2023-04-29T05:46:26;4.33;;;4.13;;
6679;SDS011;3376;42.664;23.346;2023-04-29T05:48:53;6.03;;;5.50;;
6679;SDS011;3376;42.664;23.346;2023-04-29T05:51:20;6.23;;;5.50;;
6679;SDS011;3376;42.664;23.346;2023-04-29T05:53:46;5.97;;;5.47;;
6679;SDS011;3376;42.664;23.346;2023-04-29T05:56:13;7.20;;;6.50;;
6679;SDS011;3376;42.664;23.346;2023-04-29T05:58:42;20.17;;;15.13;;
6679;SDS011;3376;42.664;23.346;2023-04-29T06:01:08;14.80;;;7.83;;
6679;SDS011;3376;42.664;23.346;2023-04-29T06:03:35;7.27;;;6.13;;
6679;SDS011;3376;42.664;23.346;2023-04-29T06:06:02;7.93;;;6.43;;
6679;SDS011;3376;42.664;23.346;2023-04-29T06:08:29;5.93;;;5.53;;
6679;SDS011;3376;42.664;23.346;2023-04-29T06:10:56;5.60;;;5.13;;
6679;SDS011;3376;42.664;23.346;2023-04-29T06:13:22;5.17;;;4.90;;
6679;SDS011;3376;42.664;23.346;2023-04-29T06:15:51;8.87;;;5.67;;
6679;SDS011;3376;42.664;23.346;2023-04-29T06:18:18;5.60;;;5.30;;
6679;SDS011;3376;42.664;23.346;2023-04-29T06:20:45;7.23;;;6.10;;
6679;SDS011;3376;42.664;23.346;2023-04-29T06:23:12;7.13;;;6.17;;
6679;SDS011;3376;42.664;23.346;2023-04-29T06:25:38;7.83;;;6.17;;
6679;SDS011;3376;42.664;23.346;2023-04-29T06:28:05;6.23;;;5.63;;
6679;SDS011;3376;42.664;23.346;2023-04-29T06:30:32;7.33;;;5.73;;
6679;SDS011;3376;42.664;23.346;2023-04-29T06:33:00;6.20;;;5.90;;
6679;SDS011;3376;42.664;23.346;2023-04-29T06:35:27;6.53;;;6.10;;
6679;SDS011;3376;42.664;23.346;2023-04-29T06:37:54;7.10;;;6.50;;
6679;SDS011;3376;42.664;23.346;2023-04-29T06:40:21;7.13;;;6.63;;
6679;SDS011;3376;42.664;23.346;2023-04-29T06:42:48;6.53;;;5.87;;
6679;SDS011;3376;42.664;23.346;2023-04-29T06:45:16;6.60;;;6.17;;
6679;SDS011;3376;42.664;23.346;2023-04-29T06:47:43;6.47;;;5.97;;
6679;SDS011;3376;42.664;23.346;2023-04-29T06:50:12;6.60;;;6.23;;
6679;SDS011;3376;42.664;23.346;2023-04-29T06:52:38;6.20;;;5.80;;
6679;SDS011;3376;42.664;23.346;2023-04-29T06:55:05;6.57;;;6.17;;
6679;SDS011;3376;42.664;23.346;2023-04-29T06:57:33;6.37;;;5.93;;
6679;SDS011;3376;42.664;23.346;2023-04-29T07:00:00;7.27;;;6.60;;
6679;SDS011;3376;42.664;23.346;2023-04-29T07:02:28;7.07;;;5.87;;
6679;SDS011;3376;42.664;23.346;2023-04-29T07:04:55;6.27;;;5.87;;
6679;SDS011;3376;42.664;23.346;2023-04-29T07:07:23;8.00;;;6.50;;
6679;SDS011;3376;42.664;23.346;2023-04-29T07:09:50;7.37;;;6.67;;
6679;SDS011;3376;42.664;23.346;2023-04-29T07:12:17;6.73;;;6.13;;
6679;SDS011;3376;42.664;23.346;2023-04-29T07:14:44;6.97;;;6.20;;
6679;SDS011;3376;42.664;23.346;2023-04-29T07:17:11;7.53;;;6.80;;
6679;SDS011;3376;42.664;23.346;2023-04-29T07:19:38;6.73;;;6.33;;
6679;SDS011;3376;42.664;23.346;2023-04-29T07:22:04;6.10;;;5.73;;
6679;SDS011;3376;42.664;23.346;2023-04-29T07:24:32;6.17;;;5.80;;
6679;SDS011;3376;42.664;23.346;2023-04-29T07:26:59;7.37;;;6.10;;
6679;SDS011;3376;42.664;23.346;2023-04-29T07:29:26;11.07;;;6.70;;
6679;SDS011;3376;42.664;23.346;2023-04-29T07:31:53;6.33;;;5.77;;
6679;SDS011;3376;42.664;23.346;2023-04-29T07:34:20;6.50;;;6.10;;
6679;SDS011;3376;42.664;23.346;2023-04-29T07:36:46;6.57;;;6.07;;
6679;SDS011;3376;42.664;23.346;2023-04-29T07:39:13;6.33;;;5.93;;
6679;SDS011;3376;42.664;23.346;2023-04-29T07:41:42;6.67;;;6.10;;
6679;SDS011;3376;42.664;23.346;2023-04-29T07:44:09;5.87;;;5.37;;
6679;SDS011;3376;42.664;23.346;2023-04-29T07:46:35;6.33;;;5.80;;
6679;SDS011;3376;42.664;23.346;2023-04-29T07:49:02;6.70;;;6.33;;
6679;SDS011;3376;42.664;23.346;2023-04-29T07:51:31;7.37;;;6.23;;
6679;SDS011;3376;42.664;23.346;2023-04-29T07:53:57;6.70;;;5.67;;
6679;SDS011;3376;42.664;23.346;2023-04-29T07:56:24;5.77;;;5.37;;
6679;SDS011;3376;42.664;23.346;2023-04-29T07:58:52;5.73;;;5.43;;
6679;SDS011;3376;42.664;23.346;2023-04-29T08:01:19;5.67;;;5.27;;
6679;SDS011;3376;42.664;23.346;2023-04-29T08:03:46;5.40;;;4.40;;
6679;SDS011;3376;42.664;23.346;2023-04-29T08:06:13;5.03;;;4.77;;
6679;SDS011;3376;42.664;23.346;2023-04-29T08:08:40;5.67;;;4.70;;
6679;SDS011;3376;42.664;23.346;2023-04-29T08:11:06;5.70;;;5.23;;
6679;SDS011;3376;42.664;23.346;2023-04-29T08:13:33;5.33;;;4.67;;
6679;SDS011;3376;42.664;23.346;2023-04-29T08:16:01;5.53;;;5.13;;
6679;SDS011;3376;42.664;23.346;2023-04-29T08:18:28;5.77;;;5.07;;
6679;SDS011;3376;42.664;23.346;2023-04-29T08:20:55;5.47;;;4.93;;
6679;SDS011;3376;42.664;23.346;2023-04-29T08:23:22;5.27;;;4.73;;
6679;SDS011;3376;42.664;23.346;2023-04-29T08:25:48;5.07;;;4.67;;
6679;SDS011;3376;42.664;23.346;2023-04-29T08:28:17;5.50;;;5.20;;
6679;SDS011;3376;42.664;23.346;2023-04-29T08:30:44;5.40;;;4.90;;
6679;SDS011;3376;42.664;23.346;2023-04-29T08:33:12;5.23;;;4.80;;
6679;SDS011;3376;42.664;23.346;2023-04-29T08:35:40;5.53;;;5.00;;
6679;SDS011;3376;42.664;23.346;2023-04-29T08:38:07;4.30;;;3.93;;
6679;SDS011;3376;42.664;23.346;2023-04-29T08:40:35;6.17;;;4.10;;
6679;SDS011;3376;42.664;23.346;2023-04-29T08:43:02;4.47;;;4.17;;
6679;SDS011;3376;42.664;23.346;2023-04-29T08:45:30;4.40;;;4.00;;
6679;SDS011;3376;42.664;23.346;2023-04-29T08:47:59;4.43;;;4.13;;
6679;SDS011;3376;42.664;23.346;2023-04-29T08:50:30;3.97;;;3.70;;
6679;SDS011;3376;42.664;23.346;2023-04-29T08:52:57;7.40;;;4.90;;
6679;SDS011;3376;42.664;23.346;2023-04-29T08:55:24;6.43;;;4.10;;
6679;SDS011;3376;42.664;23.346;2023-04-29T08:57:52;6.07;;;3.33;;
6679;SDS011;3376;42.664;23.346;2023-04-29T09:00:23;3.93;;;3.63;;
6679;SDS011;3376;42.664;23.346;2023-04-29T09:02:50;4.23;;;3.97;;
6679;SDS011;3376;42.664;23.346;2023-04-29T09:05:21;4.73;;;4.20;;
6679;SDS011;3376;42.664;23.346;2023-04-29T09:07:52;3.47;;;3.37;;
6679;SDS011;3376;42.664;23.346;2023-04-29T09:10:23;5.60;;;3.40;;
6679;SDS011;3376;42.664;23.346;2023-04-29T09:12:54;3.50;;;3.20;;
6679;SDS011;3376;42.664;23.346;2023-04-29T09:15:34;2.97;;;2.77;;
6679;SDS011;3376;42.664;23.346;2023-04-29T09:21:23;3.80;;;3.00;;
6679;SDS011;3376;42.664;23.346;2023-04-29T09:23:53;3.33;;;3.13;;
6679;SDS011;3376;42.664;23.346;2023-04-29T09:26:21;3.60;;;3.33;;
6679;SDS011;3376;42.664;23.346;2023-04-29T09:29:04;3.23;;;3.07;;
6679;SDS011;3376;42.664;23.346;2023-04-29T09:31:32;13.87;;;12.40;;
6679;SDS011;3376;42.664;23.346;2023-04-29T09:33:59;9.93;;;7.70;;
6679;SDS011;3376;42.664;23.346;2023-04-29T09:39:22;4.50;;;4.20;;
6679;SDS011;3376;42.664;23.346;2023-04-29T09:41:57;7.67;;;4.57;;
6679;SDS011;3376;42.664;23.346;2023-04-29T09:44:27;5.37;;;3.90;;
6679;SDS011;3376;42.664;23.346;2023-04-29T09:46:55;12.47;;;8.40;;
6679;SDS011;3376;42.664;23.346;2023-04-29T09:49:24;6.73;;;5.90;;
6679;SDS011;3376;42.664;23.346;2023-04-29T09:51:53;23.70;;;13.73;;
6679;SDS011;3376;42.664;23.346;2023-04-29T09:54:23;9.07;;;8.13;;
6679;SDS011;3376;42.664;23.346;2023-04-29T09:56:53;13.60;;;10.73;;
6679;SDS011;3376;42.664;23.346;2023-04-29T09:59:21;20.10;;;12.07;;
6679;SDS011;3376;42.664;23.346;2023-04-29T10:01:48;8.17;;;5.90;;
6679;SDS011;3376;42.664;23.346;2023-04-29T10:04:16;6.43;;;5.47;;
6679;SDS011;3376;42.664;23.346;2023-04-29T10:06:45;5.10;;;4.73;;
6679;SDS011;3376;42.664;23.346;2023-04-29T10:09:16;5.67;;;4.70;;
6679;SDS011;3376;42.664;23.346;2023-04-29T10:11:46;9.00;;;5.50;;
6679;SDS011;3376;42.664;23.346;2023-04-29T10:14:14;5.90;;;5.53;;
6679;SDS011;3376;42.664;23.346;2023-04-29T10:16:44;5.13;;;4.83;;
6679;SDS011;3376;42.664;23.346;2023-04-29T10:19:14;6.07;;;5.60;;
6679;SDS011;3376;42.664;23.346;2023-04-29T10:21:44;6.13;;;5.70;;
6679;SDS011;3376;42.664;23.346;2023-04-29T10:24:14;6.23;;;5.73;;
6679;SDS011;3376;42.664;23.346;2023-04-29T10:26:44;7.77;;;5.30;;
6679;SDS011;3376;42.664;23.346;2023-04-29T10:29:16;5.97;;;5.47;;
6679;SDS011;3376;42.664;23.346;2023-04-29T10:31:44;5.90;;;5.40;;
6679;SDS011;3376;42.664;23.346;2023-04-29T10:34:15;5.27;;;4.80;;
6679;SDS011;3376;42.664;23.346;2023-04-29T10:36:43;6.77;;;5.27;;
6679;SDS011;3376;42.664;23.346;2023-04-29T10:39:15;4.63;;;4.43;;
6679;SDS011;3376;42.664;23.346;2023-04-29T10:41:50;5.20;;;4.90;;
6679;SDS011;3376;42.664;23.346;2023-04-29T10:44:19;5.37;;;4.87;;
6679;SDS011;3376;42.664;23.346;2023-04-29T10:46:46;4.40;;;4.20;;
6679;SDS011;3376;42.664;23.346;2023-04-29T10:49:12;4.80;;;4.43;;
6679;SDS011;3376;42.664;23.346;2023-04-29T10:51:40;5.10;;;4.43;;
6679;SDS011;3376;42.664;23.346;2023-04-29T10:54:08;8.67;;;5.07;;
6679;SDS011;3376;42.664;23.346;2023-04-29T10:56:43;5.20;;;4.70;;
6679;SDS011;3376;42.664;23.346;2023-04-29T10:59:15;9.10;;;4.00;;
6679;SDS011;3376;42.664;23.346;2023-04-29T11:01:46;3.83;;;3.63;;
6679;SDS011;3376;42.664;23.346;2023-04-29T11:04:14;4.20;;;3.90;;
6679;SDS011;3376;42.664;23.346;2023-04-29T11:06:43;4.13;;;3.83;;
6679;SDS011;3376;42.664;23.346;2023-04-29T11:09:12;4.00;;;3.80;;
6679;SDS011;3376;42.664;23.346;2023-04-29T11:11:41;4.07;;;3.77;;
6679;SDS011;3376;42.664;23.346;2023-04-29T11:14:09;3.67;;;3.30;;
6679;SDS011;3376;42.664;23.346;2023-04-29T11:16:46;4.27;;;3.97;;
6679;SDS011;3376;42.664;23.346;2023-04-29T11:19:14;3.37;;;3.17;;
6679;SDS011;3376;42.664;23.346;2023-04-29T11:21:42;3.10;;;2.90;;
6679;SDS011;3376;42.664;23.346;2023-04-29T11:24:10;7.53;;;3.23;;
6679;SDS011;3376;42.664;23.346;2023-04-29T11:26:39;4.63;;;3.20;;
6679;SDS011;3376;42.664;23.346;2023-04-29T11:29:06;4.60;;;2.93;;
6679;SDS011;3376;42.664;23.346;2023-04-29T11:31:34;3.43;;;3.17;;
6679;SDS011;3376;42.664;23.346;2023-04-29T11:34:04;2.90;;;2.70;;
6679;SDS011;3376;42.664;23.346;2023-04-29T11:36:32;5.90;;;2.70;;
6679;SDS011;3376;42.664;23.346;2023-04-29T11:38:59;2.97;;;2.77;;
6679;SDS011;3376;42.664;23.346;2023-04-29T11:41:27;3.50;;;2.50;;
6679;SDS011;3376;42.664;23.346;2023-04-29T11:43:56;3.17;;;2.60;;
6679;SDS011;3376;42.664;23.346;2023-04-29T11:46:23;3.17;;;1.87;;
6679;SDS011;3376;42.664;23.346;2023-04-29T11:48:53;4.03;;;2.00;;
6679;SDS011;3376;42.664;23.346;2023-04-29T11:51:21;3.70;;;2.27;;
6679;SDS011;3376;42.664;23.346;2023-04-29T11:53:48;2.20;;;1.90;;
6679;SDS011;3376;42.664;23.346;2023-04-29T11:56:14;2.77;;;1.93;;
6679;SDS011;3376;42.664;23.346;2023-04-29T11:58:41;2.67;;;1.60;;
6679;SDS011;3376;42.664;23.346;2023-04-29T12:01:09;2.27;;;1.90;;
6679;SDS011;3376;42.664;23.346;2023-04-29T12:03:36;1.73;;;1.63;;
6679;SDS011;3376;42.664;23.346;2023-04-29T12:06:03;4.30;;;1.60;;
6679;SDS011;3376;42.664;23.346;2023-04-29T12:08:31;2.77;;;2.60;;
6679;SDS011;3376;42.664;23.346;2023-04-29T12:10:58;2.97;;;1.87;;
6679;SDS011;3376;42.664;23.346;2023-04-29T12:13:27;5.13;;;2.07;;
6679;SDS011;3376;42.664;23.346;2023-04-29T12:15:54;2.20;;;2.03;;
6679;SDS011;3376;42.664;23.346;2023-04-29T12:18:22;2.23;;;2.03;;
6679;SDS011;3376;42.664;23.346;2023-04-29T12:20:51;3.30;;;1.87;;
6679;SDS011;3376;42.664;23.346;2023-04-29T12:23:20;4.83;;;2.40;;
6679;SDS011;3376;42.664;23.346;2023-04-29T12:25:50;1.53;;;1.40;;
6679;SDS011;3376;42.664;23.346;2023-04-29T12:28:18;7.67;;;1.70;;
6679;SDS011;3376;42.664;23.346;2023-04-29T12:30:45;2.00;;;1.90;;
6679;SDS011;3376;42.664;23.346;2023-04-29T12:33:17;1.97;;;1.73;;
6679;SDS011;3376;42.664;23.346;2023-04-29T12:35:46;2.13;;;2.03;;
6679;SDS011;3376;42.664;23.346;2023-04-29T12:38:14;3.47;;;2.97;;
6679;SDS011;3376;42.664;23.346;2023-04-29T12:40:43;6.47;;;5.57;;
6679;SDS011;3376;42.664;23.346;2023-04-29T12:43:11;2.87;;;1.77;;
6679;SDS011;3376;42.664;23.346;2023-04-29T12:45:38;2.60;;;2.40;;
6679;SDS011;3376;42.664;23.346;2023-04-29T12:48:05;5.37;;;2.20;;
6679;SDS011;3376;42.664;23.346;2023-04-29T12:50:32;3.50;;;1.90;;
6679;SDS011;3376;42.664;23.346;2023-04-29T12:53:00;2.43;;;2.00;;
6679;SDS011;3376;42.664;23.346;2023-04-29T12:55:29;2.20;;;1.87;;
6679;SDS011;3376;42.664;23.346;2023-04-29T12:57:58;2.13;;;1.80;;
6679;SDS011;3376;42.664;23.346;2023-04-29T13:00:26;3.40;;;1.70;;
6679;SDS011;3376;42.664;23.346;2023-04-29T13:02:53;1.57;;;1.47;;
6679;SDS011;3376;42.664;23.346;2023-04-29T13:05:20;1.73;;;1.60;;
6679;SDS011;3376;42.664;23.346;2023-04-29T13:07:47;1.37;;;1.33;;
6679;SDS011;3376;42.664;23.346;2023-04-29T13:10:14;4.17;;;2.10;;
6679;SDS011;3376;42.664;23.346;2023-04-29T13:12:41;3.53;;;2.07;;
6679;SDS011;3376;42.664;23.346;2023-04-29T13:15:08;1.80;;;1.70;;
6679;SDS011;3376;42.664;23.346;2023-04-29T13:17:37;1.80;;;1.70;;
6679;SDS011;3376;42.664;23.346;2023-04-29T13:20:04;2.30;;;1.60;;
6679;SDS011;3376;42.664;23.346;2023-04-29T13:22:31;1.97;;;1.80;;
6679;SDS011;3376;42.664;23.346;2023-04-29T13:24:58;1.60;;;1.50;;
6679;SDS011;3376;42.664;23.346;2023-04-29T13:27:25;2.13;;;2.03;;
6679;SDS011;3376;42.664;23.346;2023-04-29T13:29:52;2.67;;;1.33;;
6679;SDS011;3376;42.664;23.346;2023-04-29T13:32:18;1.60;;;1.53;;
6679;SDS011;3376;42.664;23.346;2023-04-29T13:34:49;1.50;;;1.40;;
6679;SDS011;3376;42.664;23.346;2023-04-29T13:37:15;2.03;;;1.93;;
6679;SDS011;3376;42.664;23.346;2023-04-29T13:39:42;2.97;;;1.80;;
6679;SDS011;3376;42.664;23.346;2023-04-29T13:42:09;1.20;;;1.20;;
6679;SDS011;3376;42.664;23.346;2023-04-29T13:44:36;2.20;;;1.50;;
6679;SDS011;3376;42.664;23.346;2023-04-29T13:47:08;2.00;;;1.30;;
6679;SDS011;3376;42.664;23.346;2023-04-29T13:49:35;6.18;;;2.08;;
6679;SDS011;3376;42.664;23.346;2023-04-29T13:52:04;1.50;;;1.50;;
6679;SDS011;3376;42.664;23.346;2023-04-29T13:54:30;1.30;;;1.30;;
6679;SDS011;3376;42.664;23.346;2023-04-29T13:56:57;1.97;;;1.43;;
6679;SDS011;3376;42.664;23.346;2023-04-29T13:59:24;1.90;;;1.20;;
6679;SDS011;3376;42.664;23.346;2023-04-29T14:01:51;1.57;;;1.40;;
6679;SDS011;3376;42.664;23.346;2023-04-29T14:04:17;1.63;;;1.27;;
6679;SDS011;3376;42.664;23.346;2023-04-29T14:06:44;1.43;;;1.43;;
6679;SDS011;3376;42.664;23.346;2023-04-29T14:09:12;3.13;;;2.27;;
6679;SDS011;3376;42.664;23.346;2023-04-29T14:11:39;2.13;;;1.70;;
6679;SDS011;3376;42.664;23.346;2023-04-29T14:14:06;2.30;;;1.90;;
6679;SDS011;3376;42.664;23.346;2023-04-29T14:16:32;2.40;;;1.63;;
6679;SDS011;3376;42.664;23.346;2023-04-29T14:18:59;2.30;;;2.10;;
6679;SDS011;3376;42.664;23.346;2023-04-29T14:21:26;2.00;;;1.83;;
6679;SDS011;3376;42.664;23.346;2023-04-29T14:23:53;1.83;;;1.73;;
6679;SDS011;3376;42.664;23.346;2023-04-29T14:26:21;2.13;;;2.03;;
6679;SDS011;3376;42.664;23.346;2023-04-29T14:28:48;2.20;;;1.90;;
6679;SDS011;3376;42.664;23.346;2023-04-29T14:31:21;1.97;;;1.87;;
6679;SDS011;3376;42.664;23.346;2023-04-29T14:33:48;3.40;;;2.47;;
6679;SDS011;3376;42.664;23.346;2023-04-29T14:36:15;2.13;;;2.03;;
6679;SDS011;3376;42.664;23.346;2023-04-29T14:38:42;1.70;;;1.70;;
6679;SDS011;3376;42.664;23.346;2023-04-29T14:41:08;2.60;;;2.40;;
6679;SDS011;3376;42.664;23.346;2023-04-29T14:43:36;2.70;;;2.50;;
6679;SDS011;3376;42.664;23.346;2023-04-29T14:46:05;1.80;;;1.70;;
6679;SDS011;3376;42.664;23.346;2023-04-29T14:48:32;3.63;;;2.20;;
6679;SDS011;3376;42.664;23.346;2023-04-29T14:50:58;2.10;;;1.90;;
6679;SDS011;3376;42.664;23.346;2023-04-29T14:53:25;2.60;;;1.97;;
6679;SDS011;3376;42.664;23.346;2023-04-29T14:55:52;5.77;;;2.27;;
6679;SDS011;3376;42.664;23.346;2023-04-29T14:58:19;2.90;;;2.00;;
6679;SDS011;3376;42.664;23.346;2023-04-29T15:00:47;3.40;;;3.07;;
6679;SDS011;3376;42.664;23.346;2023-04-29T15:03:15;12.20;;;5.20;;
6679;SDS011;3376;42.664;23.346;2023-04-29T15:05:41;3.67;;;3.33;;
6679;SDS011;3376;42.664;23.346;2023-04-29T15:08:08;4.97;;;2.80;;
6679;SDS011;3376;42.664;23.346;2023-04-29T15:10:35;4.63;;;3.90;;